sensor_id;sensor_type;location;lat;lon;timestamp;pressure;altitude;pressure_sealevel;temperature;humidity
6090;BME280;3073;42.660;23.316;2022-07-21T00:00:22;94815.78;;;20.25;100.00
6090;BME280;3073;42.660;23.316;2022-07-21T00:02:49;94811.94;;;20.23;100.00
6090;BME280;3073;42.660;23.316;2022-07-21T00:05:16;94819.72;;;20.09;100.00
6090;BME280;3073;42.660;23.316;2022-07-21T00:07:43;94814.31;;;19.92;100.00
6090;BME280;3073;42.660;23.316;2022-07-21T00:10:11;94824.19;;;19.90;100.00
6090;BME280;3073;42.660;23.316;2022-07-21T00:12:46;94821.25;;;19.96;100.00
6090;BME280;3073;42.660;23.316;2022-07-21T00:15:16;94818.16;;;19.81;100.00
6090;BME280;3073;42.660;23.316;2022-07-21T00:17:43;94820.63;;;19.72;100.00
6090;BME280;3073;42.660;23.316;2022-07-21T00:20:11;94817.72;;;19.60;100.00
6090;BME280;3073;42.660;23.316;2022-07-21T00:22:38;94818.00;;;19.59;100.00
6090;BME280;3073;42.660;23.316;2022-07-21T00:25:06;94819.47;;;19.65;100.00
6090;BME280;3073;42.660;23.316;2022-07-21T00:27:34;94821.13;;;19.74;100.00
6090;BME280;3073;42.660;23.316;2022-07-21T00:30:01;94821.00;;;19.79;100.00
6090;BME280;3073;42.660;23.316;2022-07-21T00:32:29;94821.84;;;19.61;100.00
6090;BME280;3073;42.660;23.316;2022-07-21T00:34:56;94823.78;;;19.69;100.00
6090;BME280;3073;42.660;23.316;2022-07-21T00:37:22;94821.19;;;19.69;100.00
6090;BME280;3073;42.660;23.316;2022-07-21T00:39:49;94818.75;;;19.59;100.00
6090;BME280;3073;42.660;23.316;2022-07-21T00:42:21;94824.97;;;19.58;100.00
6090;BME280;3073;42.660;23.316;2022-07-21T00:44:48;94826.31;;;19.56;100.00
6090;BME280;3073;42.660;23.316;2022-07-21T00:47:15;94822.59;;;19.48;100.00
6090;BME280;3073;42.660;23.316;2022-07-21T00:49:46;94823.63;;;19.47;100.00
6090;BME280;3073;42.660;23.316;2022-07-21T00:52:13;94823.63;;;19.47;100.00
6090;BME280;3073;42.660;23.316;2022-07-21T00:54:40;94828.72;;;19.52;100.00
6090;BME280;3073;42.660;23.316;2022-07-21T00:57:07;94823.94;;;19.59;100.00
6090;BME280;3073;42.660;23.316;2022-07-21T00:59:34;94819.91;;;19.53;100.00
6090;BME280;3073;42.660;23.316;2022-07-21T01:02:01;94820.38;;;19.55;100.00
6090;BME280;3073;42.660;23.316;2022-07-21T01:04:29;94823.53;;;19.52;100.00
6090;BME280;3073;42.660;23.316;2022-07-21T01:07:00;94813.63;;;19.40;100.00
6090;BME280;3073;42.660;23.316;2022-07-21T01:09:28;94811.84;;;19.36;100.00
6090;BME280;3073;42.660;23.316;2022-07-21T01:11:56;94810.41;;;19.30;100.00
6090;BME280;3073;42.660;23.316;2022-07-21T01:14:24;94806.94;;;19.21;100.00
6090;BME280;3073;42.660;23.316;2022-07-21T01:16:51;94804.75;;;19.28;100.00
6090;BME280;3073;42.660;23.316;2022-07-21T01:19:18;94802.88;;;19.15;100.00
6090;BME280;3073;42.660;23.316;2022-07-21T01:21:48;94802.59;;;19.16;100.00
6090;BME280;3073;42.660;23.316;2022-07-21T01:24:15;94795.38;;;19.13;100.00
6090;BME280;3073;42.660;23.316;2022-07-21T01:26:44;94792.44;;;19.20;100.00
6090;BME280;3073;42.660;23.316;2022-07-21T01:29:12;94796.22;;;19.27;100.00
6090;BME280;3073;42.660;23.316;2022-07-21T01:31:41;94799.56;;;19.28;100.00
6090;BME280;3073;42.660;23.316;2022-07-21T01:34:08;94802.16;;;19.28;100.00
6090;BME280;3073;42.660;23.316;2022-07-21T01:36:35;94794.75;;;19.21;100.00
6090;BME280;3073;42.660;23.316;2022-07-21T01:39:04;94791.47;;;19.16;100.00
6090;BME280;3073;42.660;23.316;2022-07-21T01:42:03;94785.81;;;19.14;100.00
6090;BME280;3073;42.660;23.316;2022-07-21T01:44:29;94788.88;;;19.16;100.00
6090;BME280;3073;42.660;23.316;2022-07-21T01:46:56;94787.28;;;19.20;100.00
6090;BME280;3073;42.660;23.316;2022-07-21T01:49:23;94789.28;;;19.23;100.00
6090;BME280;3073;42.660;23.316;2022-07-21T01:51:51;94793.44;;;19.05;100.00
6090;BME280;3073;42.660;23.316;2022-07-21T01:54:19;94788.13;;;18.96;100.00
6090;BME280;3073;42.660;23.316;2022-07-21T01:56:46;94787.78;;;18.84;100.00
6090;BME280;3073;42.660;23.316;2022-07-21T01:59:12;94794.84;;;18.79;100.00
6090;BME280;3073;42.660;23.316;2022-07-21T02:01:39;94787.72;;;18.89;100.00
6090;BME280;3073;42.660;23.316;2022-07-21T02:04:06;94785.56;;;18.78;100.00
6090;BME280;3073;42.660;23.316;2022-07-21T02:06:33;94789.97;;;18.77;100.00
6090;BME280;3073;42.660;23.316;2022-07-21T02:09:00;94785.56;;;18.78;100.00
6090;BME280;3073;42.660;23.316;2022-07-21T02:11:28;94789.75;;;18.74;100.00
6090;BME280;3073;42.660;23.316;2022-07-21T02:13:55;94781.09;;;18.65;100.00
6090;BME280;3073;42.660;23.316;2022-07-21T02:16:22;94793.84;;;18.56;100.00
6090;BME280;3073;42.660;23.316;2022-07-21T02:18:49;94790.81;;;18.49;100.00
6090;BME280;3073;42.660;23.316;2022-07-21T02:21:16;94792.94;;;18.42;100.00
6090;BME280;3073;42.660;23.316;2022-07-21T02:23:43;94788.00;;;18.45;100.00
6090;BME280;3073;42.660;23.316;2022-07-21T02:26:09;94792.81;;;18.57;100.00
6090;BME280;3073;42.660;23.316;2022-07-21T02:28:38;94792.13;;;18.46;100.00
6090;BME280;3073;42.660;23.316;2022-07-21T02:31:05;94788.34;;;18.39;100.00
6090;BME280;3073;42.660;23.316;2022-07-21T02:33:32;94785.50;;;18.17;100.00
6090;BME280;3073;42.660;23.316;2022-07-21T02:35:59;94784.34;;;18.28;100.00
6090;BME280;3073;42.660;23.316;2022-07-21T02:38:26;94786.53;;;18.16;100.00
6090;BME280;3073;42.660;23.316;2022-07-21T02:40:53;94783.41;;;18.19;100.00
6090;BME280;3073;42.660;23.316;2022-07-21T02:43:20;94780.00;;;18.23;100.00
6090;BME280;3073;42.660;23.316;2022-07-21T02:45:48;94780.53;;;18.44;100.00
6090;BME280;3073;42.660;23.316;2022-07-21T02:48:14;94777.31;;;18.33;100.00
6090;BME280;3073;42.660;23.316;2022-07-21T02:50:43;94773.69;;;18.34;100.00
6090;BME280;3073;42.660;23.316;2022-07-21T02:53:12;94782.13;;;18.40;100.00
6090;BME280;3073;42.660;23.316;2022-07-21T02:55:40;94779.97;;;18.47;100.00
6090;BME280;3073;42.660;23.316;2022-07-21T02:58:10;94779.81;;;18.38;100.00
6090;BME280;3073;42.660;23.316;2022-07-21T03:00:39;94776.41;;;18.43;100.00
6090;BME280;3073;42.660;23.316;2022-07-21T03:03:08;94783.94;;;18.39;100.00
6090;BME280;3073;42.660;23.316;2022-07-21T03:05:36;94781.09;;;18.41;100.00
6090;BME280;3073;42.660;23.316;2022-07-21T03:08:03;94790.66;;;18.40;100.00
6090;BME280;3073;42.660;23.316;2022-07-21T03:10:31;94787.47;;;18.25;100.00
6090;BME280;3073;42.660;23.316;2022-07-21T03:12:58;94788.25;;;18.25;100.00
6090;BME280;3073;42.660;23.316;2022-07-21T03:15:25;94783.41;;;18.19;100.00
6090;BME280;3073;42.660;23.316;2022-07-21T03:17:52;94785.66;;;18.01;100.00
6090;BME280;3073;42.660;23.316;2022-07-21T03:20:21;94791.94;;;17.95;100.00
6090;BME280;3073;42.660;23.316;2022-07-21T03:22:48;94786.66;;;18.06;100.00
6090;BME280;3073;42.660;23.316;2022-07-21T03:25:15;94787.59;;;17.91;100.00
6090;BME280;3073;42.660;23.316;2022-07-21T03:27:43;94792.53;;;17.87;100.00
6090;BME280;3073;42.660;23.316;2022-07-21T03:30:11;94793.97;;;17.98;100.00
6090;BME280;3073;42.660;23.316;2022-07-21T03:32:38;94789.84;;;17.97;100.00
6090;BME280;3073;42.660;23.316;2022-07-21T03:35:07;94794.41;;;18.06;100.00
6090;BME280;3073;42.660;23.316;2022-07-21T03:37:41;94794.84;;;17.89;100.00
6090;BME280;3073;42.660;23.316;2022-07-21T03:40:10;94797.50;;;18.08;100.00
6090;BME280;3073;42.660;23.316;2022-07-21T03:42:37;94795.44;;;18.28;100.00
6090;BME280;3073;42.660;23.316;2022-07-21T03:45:04;94794.19;;;18.26;100.00
6090;BME280;3073;42.660;23.316;2022-07-21T03:47:32;94797.16;;;18.38;100.00
6090;BME280;3073;42.660;23.316;2022-07-21T03:49:59;94800.25;;;18.35;100.00
6090;BME280;3073;42.660;23.316;2022-07-21T03:52:26;94797.16;;;18.38;100.00
6090;BME280;3073;42.660;23.316;2022-07-21T03:54:54;94802.25;;;18.43;100.00
6090;BME280;3073;42.660;23.316;2022-07-21T03:57:35;94803.41;;;18.56;100.00
6090;BME280;3073;42.660;23.316;2022-07-21T04:00:04;94809.09;;;18.58;100.00
6090;BME280;3073;42.660;23.316;2022-07-21T04:02:32;94806.16;;;18.64;100.00
6090;BME280;3073;42.660;23.316;2022-07-21T04:04:59;94803.50;;;18.69;100.00
6090;BME280;3073;42.660;23.316;2022-07-21T04:07:26;94806.09;;;18.69;100.00
6090;BME280;3073;42.660;23.316;2022-07-21T04:09:54;94806.47;;;18.81;100.00
6090;BME280;3073;42.660;23.316;2022-07-21T04:12:25;94805.91;;;18.84;100.00
6090;BME280;3073;42.660;23.316;2022-07-21T04:14:52;94809.72;;;18.87;100.00
6090;BME280;3073;42.660;23.316;2022-07-21T04:17:18;94801.31;;;18.95;100.00
6090;BME280;3073;42.660;23.316;2022-07-21T04:19:45;94804.84;;;19.04;100.00
6090;BME280;3073;42.660;23.316;2022-07-21T04:22:12;94804.91;;;19.18;100.00
6090;BME280;3073;42.660;23.316;2022-07-21T04:24:39;94805.78;;;19.08;100.00
6090;BME280;3073;42.660;23.316;2022-07-21T04:27:08;94804.91;;;19.18;100.00
6090;BME280;3073;42.660;23.316;2022-07-21T04:29:35;94802.63;;;19.30;100.00
6090;BME280;3073;42.660;23.316;2022-07-21T04:32:02;94802.16;;;19.28;100.00
6090;BME280;3073;42.660;23.316;2022-07-21T04:34:29;94812.84;;;19.40;100.00
6090;BME280;3073;42.660;23.316;2022-07-21T04:36:55;94803.63;;;19.34;100.00
6090;BME280;3073;42.660;23.316;2022-07-21T04:39:23;94808.03;;;19.33;100.00
6090;BME280;3073;42.660;23.316;2022-07-21T04:41:53;94810.97;;;19.27;100.00
6090;BME280;3073;42.660;23.316;2022-07-21T04:44:21;94814.13;;;19.42;100.00
6090;BME280;3073;42.660;23.316;2022-07-21T04:46:48;94814.63;;;19.58;100.00
6090;BME280;3073;42.660;23.316;2022-07-21T04:49:15;94815.59;;;19.62;100.00
6090;BME280;3073;42.660;23.316;2022-07-21T04:51:42;94816.59;;;19.80;100.00
6090;BME280;3073;42.660;23.316;2022-07-21T04:54:09;94820.75;;;19.81;100.00
6090;BME280;3073;42.660;23.316;2022-07-21T04:56:39;94816.03;;;19.83;100.00
6090;BME280;3073;42.660;23.316;2022-07-21T04:59:07;94826.25;;;20.07;100.00
6090;BME280;3073;42.660;23.316;2022-07-21T05:01:36;94830.66;;;20.06;100.00
6090;BME280;3073;42.660;23.316;2022-07-21T05:04:03;94830.47;;;20.16;100.00
6090;BME280;3073;42.660;23.316;2022-07-21T05:06:30;94830.19;;;20.18;100.00
6090;BME280;3073;42.660;23.316;2022-07-21T05:08:57;94829.22;;;20.14;100.00
6090;BME280;3073;42.660;23.316;2022-07-21T05:11:24;94822.31;;;20.09;100.00
6090;BME280;3073;42.660;23.316;2022-07-21T05:13:52;94825.59;;;20.28;100.00
6090;BME280;3073;42.660;23.316;2022-07-21T05:16:18;94822.06;;;20.38;100.00
6090;BME280;3073;42.660;23.316;2022-07-21T05:18:47;94823.59;;;20.39;100.00
6090;BME280;3073;42.660;23.316;2022-07-21T05:21:14;94823.38;;;20.49;100.00
6090;BME280;3073;42.660;23.316;2022-07-21T05:23:40;94819.53;;;20.60;100.00
6090;BME280;3073;42.660;23.316;2022-07-21T05:26:07;94823.06;;;20.78;100.00
6090;BME280;3073;42.660;23.316;2022-07-21T05:28:34;94825.75;;;20.73;100.00
6090;BME280;3073;42.660;23.316;2022-07-21T05:31:01;94828.25;;;20.91;100.00
6090;BME280;3073;42.660;23.316;2022-07-21T05:33:28;94823.47;;;21.07;100.00
6090;BME280;3073;42.660;23.316;2022-07-21T05:35:56;94814.81;;;21.12;100.00
6090;BME280;3073;42.660;23.316;2022-07-21T05:38:23;94823.69;;;21.33;100.00
6090;BME280;3073;42.660;23.316;2022-07-21T05:40:49;94825.34;;;21.29;100.00
6090;BME280;3073;42.660;23.316;2022-07-21T05:43:16;94828.44;;;21.31;100.00
6090;BME280;3073;42.660;23.316;2022-07-21T05:45:44;94829.31;;;21.26;100.00
6090;BME280;3073;42.660;23.316;2022-07-21T05:48:11;94824.88;;;21.27;100.00
6090;BME280;3073;42.660;23.316;2022-07-21T05:50:38;94827.84;;;21.34;100.00
6090;BME280;3073;42.660;23.316;2022-07-21T05:53:06;94823.25;;;21.31;100.00
6090;BME280;3073;42.660;23.316;2022-07-21T05:55:33;94821.91;;;21.42;100.00
6090;BME280;3073;42.660;23.316;2022-07-21T05:58:00;94832.78;;;21.22;100.00
6090;BME280;3073;42.660;23.316;2022-07-21T06:00:27;94826.13;;;21.51;100.00
6090;BME280;3073;42.660;23.316;2022-07-21T06:02:54;94825.50;;;21.77;99.32
6090;BME280;3073;42.660;23.316;2022-07-21T06:05:21;94819.41;;;22.03;95.75
6090;BME280;3073;42.660;23.316;2022-07-21T06:07:48;94813.41;;;22.34;89.51
6090;BME280;3073;42.660;23.316;2022-07-21T06:10:16;94822.44;;;23.01;83.71
6090;BME280;3073;42.660;23.316;2022-07-21T06:12:44;94826.25;;;23.64;79.65
6090;BME280;3073;42.660;23.316;2022-07-21T06:15:12;94821.19;;;24.31;74.15
6090;BME280;3073;42.660;23.316;2022-07-21T06:17:40;94821.44;;;24.38;74.37
6090;BME280;3073;42.660;23.316;2022-07-21T06:20:08;94823.81;;;25.43;69.78
6090;BME280;3073;42.660;23.316;2022-07-21T06:22:36;94822.44;;;26.36;65.76
6090;BME280;3073;42.660;23.316;2022-07-21T06:25:05;94822.41;;;26.96;63.53
6090;BME280;3073;42.660;23.316;2022-07-21T06:27:34;94823.13;;;27.49;58.67
6090;BME280;3073;42.660;23.316;2022-07-21T06:30:01;94820.38;;;27.57;58.25
6090;BME280;3073;42.660;23.316;2022-07-21T06:32:28;94816.31;;;28.19;57.09
6090;BME280;3073;42.660;23.316;2022-07-21T06:34:55;94816.41;;;28.23;56.04
6090;BME280;3073;42.660;23.316;2022-07-21T06:37:22;94808.59;;;28.92;51.87
6090;BME280;3073;42.660;23.316;2022-07-21T06:39:49;94805.69;;;29.32;50.86
6090;BME280;3073;42.660;23.316;2022-07-21T06:42:16;94808.94;;;29.87;49.30
6090;BME280;3073;42.660;23.316;2022-07-21T06:44:44;94808.56;;;30.56;47.11
6090;BME280;3073;42.660;23.316;2022-07-21T06:47:11;94809.53;;;30.71;46.61
6090;BME280;3073;42.660;23.316;2022-07-21T06:49:38;94805.13;;;30.79;45.10
6090;BME280;3073;42.660;23.316;2022-07-21T06:52:05;94814.94;;;31.38;43.79
6090;BME280;3073;42.660;23.316;2022-07-21T06:54:32;94807.66;;;31.28;43.01
6090;BME280;3073;42.660;23.316;2022-07-21T06:56:58;94799.81;;;31.01;44.45
6090;BME280;3073;42.660;23.316;2022-07-21T06:59:25;94803.00;;;31.18;43.60
6090;BME280;3073;42.660;23.316;2022-07-21T07:01:53;94804.50;;;31.15;45.52
6090;BME280;3073;42.660;23.316;2022-07-21T07:04:20;94808.59;;;31.76;44.20
6090;BME280;3073;42.660;23.316;2022-07-21T07:06:47;94798.84;;;32.27;42.10
6090;BME280;3073;42.660;23.316;2022-07-21T07:09:17;94800.81;;;31.56;42.23
6090;BME280;3073;42.660;23.316;2022-07-21T07:11:44;94803.25;;;31.39;42.59
6090;BME280;3073;42.660;23.316;2022-07-21T07:14:12;94805.78;;;31.61;41.97
6090;BME280;3073;42.660;23.316;2022-07-21T07:16:39;94800.00;;;31.89;41.93
6090;BME280;3073;42.660;23.316;2022-07-21T07:19:07;94799.28;;;31.89;41.61
6090;BME280;3073;42.660;23.316;2022-07-21T07:21:34;94789.56;;;32.03;41.15
6090;BME280;3073;42.660;23.316;2022-07-21T07:24:01;94798.47;;;31.48;42.81
6090;BME280;3073;42.660;23.316;2022-07-21T07:26:29;94786.34;;;31.10;42.86
6090;BME280;3073;42.660;23.316;2022-07-21T07:28:56;94794.19;;;32.10;41.71
6090;BME280;3073;42.660;23.316;2022-07-21T07:31:23;94792.06;;;32.30;42.31
6090;BME280;3073;42.660;23.316;2022-07-21T07:33:50;94791.84;;;32.49;42.70
6090;BME280;3073;42.660;23.316;2022-07-21T07:36:18;94784.34;;;33.27;40.45
6090;BME280;3073;42.660;23.316;2022-07-21T07:38:45;94786.25;;;33.30;39.66
6090;BME280;3073;42.660;23.316;2022-07-21T07:41:13;94790.81;;;33.47;39.83
6090;BME280;3073;42.660;23.316;2022-07-21T07:43:40;94779.81;;;33.27;40.09
6090;BME280;3073;42.660;23.316;2022-07-21T07:46:07;94785.25;;;32.83;40.98
6090;BME280;3073;42.660;23.316;2022-07-21T07:48:36;94778.66;;;33.25;40.19
6090;BME280;3073;42.660;23.316;2022-07-21T07:51:03;94786.41;;;32.82;41.30
6090;BME280;3073;42.660;23.316;2022-07-21T07:53:32;94773.13;;;32.21;42.29
6090;BME280;3073;42.660;23.316;2022-07-21T07:55:59;94772.28;;;32.09;42.07
6090;BME280;3073;42.660;23.316;2022-07-21T07:58:26;94775.31;;;31.68;42.84
6090;BME280;3073;42.660;23.316;2022-07-21T08:00:53;94769.13;;;31.93;41.21
6090;BME280;3073;42.660;23.316;2022-07-21T08:03:21;94754.88;;;32.01;40.68
6090;BME280;3073;42.660;23.316;2022-07-21T08:05:48;94760.75;;;31.47;42.21
6090;BME280;3073;42.660;23.316;2022-07-21T08:08:19;94765.03;;;31.55;42.26
6090;BME280;3073;42.660;23.316;2022-07-21T08:10:48;94760.41;;;31.89;40.92
6090;BME280;3073;42.660;23.316;2022-07-21T08:13:17;94763.00;;;32.26;40.78
6090;BME280;3073;42.660;23.316;2022-07-21T08:15:46;94761.97;;;31.94;40.87
6090;BME280;3073;42.660;23.316;2022-07-21T08:18:14;94758.72;;;31.67;41.11
6090;BME280;3073;42.660;23.316;2022-07-21T08:20:45;94749.50;;;31.91;41.02
6090;BME280;3073;42.660;23.316;2022-07-21T08:23:12;94752.16;;;32.42;41.47
6090;BME280;3073;42.660;23.316;2022-07-21T08:25:39;94754.28;;;32.80;40.43
6090;BME280;3073;42.660;23.316;2022-07-21T08:28:08;94759.03;;;32.57;39.86
6090;BME280;3073;42.660;23.316;2022-07-21T08:30:35;94757.47;;;33.14;40.73
6090;BME280;3073;42.660;23.316;2022-07-21T08:33:03;94754.69;;;32.82;39.69
6090;BME280;3073;42.660;23.316;2022-07-21T08:35:30;94746.22;;;33.42;38.38
6090;BME280;3073;42.660;23.316;2022-07-21T08:38:00;94751.88;;;33.40;37.98
6090;BME280;3073;42.660;23.316;2022-07-21T08:40:29;94748.56;;;33.72;36.75
6090;BME280;3073;42.660;23.316;2022-07-21T08:42:56;94742.50;;;33.78;36.01
6090;BME280;3073;42.660;23.316;2022-07-21T08:45:24;94747.78;;;33.99;36.26
6090;BME280;3073;42.660;23.316;2022-07-21T08:47:53;94745.91;;;34.49;35.18
6090;BME280;3073;42.660;23.316;2022-07-21T08:50:23;94743.72;;;35.35;34.64
6090;BME280;3073;42.660;23.316;2022-07-21T08:52:50;94737.97;;;34.32;33.63
6090;BME280;3073;42.660;23.316;2022-07-21T08:55:17;94724.63;;;34.78;34.99
6090;BME280;3073;42.660;23.316;2022-07-21T08:57:44;94731.31;;;35.18;34.31
6090;BME280;3073;42.660;23.316;2022-07-21T09:00:12;94729.66;;;33.87;35.71
6090;BME280;3073;42.660;23.316;2022-07-21T09:02:40;94736.03;;;34.43;35.04
6090;BME280;3073;42.660;23.316;2022-07-21T09:05:09;94724.47;;;35.17;34.67
6090;BME280;3073;42.660;23.316;2022-07-21T09:07:46;94722.69;;;34.92;34.39
6090;BME280;3073;42.660;23.316;2022-07-21T09:10:14;94724.47;;;35.17;34.18
6090;BME280;3073;42.660;23.316;2022-07-21T09:12:48;94716.44;;;34.12;35.37
6090;BME280;3073;42.660;23.316;2022-07-21T09:15:17;94718.50;;;33.07;35.83
6090;BME280;3073;42.660;23.316;2022-07-21T09:18:03;94715.69;;;32.07;37.02
6090;BME280;3073;42.660;23.316;2022-07-21T09:20:31;94714.81;;;33.37;37.10
6090;BME280;3073;42.660;23.316;2022-07-21T09:23:05;94707.31;;;34.31;35.59
6090;BME280;3073;42.660;23.316;2022-07-21T09:25:40;94708.50;;;35.27;34.43
6090;BME280;3073;42.660;23.316;2022-07-21T09:28:13;94711.81;;;35.97;33.64
6090;BME280;3073;42.660;23.316;2022-07-21T09:30:49;94714.81;;;36.02;32.94
6090;BME280;3073;42.660;23.316;2022-07-21T09:33:22;94711.66;;;36.93;31.85
6090;BME280;3073;42.660;23.316;2022-07-21T09:35:57;94709.59;;;36.36;31.57
6090;BME280;3073;42.660;23.316;2022-07-21T09:38:25;94708.94;;;37.27;29.57
6090;BME280;3073;42.660;23.316;2022-07-21T09:40:53;94710.19;;;37.49;29.44
6090;BME280;3073;42.660;23.316;2022-07-21T09:43:30;94704.75;;;37.29;30.49
6090;BME280;3073;42.660;23.316;2022-07-21T09:45:59;94701.25;;;37.05;30.76
6090;BME280;3073;42.660;23.316;2022-07-21T09:48:32;94712.19;;;35.99;31.26
6090;BME280;3073;42.660;23.316;2022-07-21T09:51:25;94706.91;;;35.40;31.60
6090;BME280;3073;42.660;23.316;2022-07-21T09:53:54;94710.38;;;34.19;32.41
6090;BME280;3073;42.660;23.316;2022-07-21T09:56:23;94704.66;;;34.17;32.58
6090;BME280;3073;42.660;23.316;2022-07-21T09:58:52;94698.75;;;35.03;32.32
6090;BME280;3073;42.660;23.316;2022-07-21T10:01:19;94703.50;;;35.40;31.36
6090;BME280;3073;42.660;23.316;2022-07-21T10:03:49;94696.19;;;36.47;30.93
6090;BME280;3073;42.660;23.316;2022-07-21T10:06:19;94701.09;;;36.86;29.90
6090;BME280;3073;42.660;23.316;2022-07-21T10:08:46;94689.53;;;34.28;31.61
6090;BME280;3073;42.660;23.316;2022-07-21T10:11:14;94684.63;;;34.05;32.03
6090;BME280;3073;42.660;23.316;2022-07-21T10:13:41;94679.72;;;33.75;32.90
6090;BME280;3073;42.660;23.316;2022-07-21T10:16:12;94682.16;;;34.88;32.53
6090;BME280;3073;42.660;23.316;2022-07-21T10:18:48;94678.63;;;35.09;32.44
6090;BME280;3073;42.660;23.316;2022-07-21T10:21:41;94682.94;;;34.82;31.09
6090;BME280;3073;42.660;23.316;2022-07-21T10:24:10;94680.25;;;35.61;31.20
6090;BME280;3073;42.660;23.316;2022-07-21T10:26:37;94684.84;;;36.02;31.36
6090;BME280;3073;42.660;23.316;2022-07-21T10:29:04;94678.78;;;37.06;30.30
6090;BME280;3073;42.660;23.316;2022-07-21T10:31:31;94679.88;;;37.39;29.63
6090;BME280;3073;42.660;23.316;2022-07-21T10:34:07;94678.94;;;37.76;29.26
6090;BME280;3073;42.660;23.316;2022-07-21T10:36:45;94669.88;;;37.70;29.46
6090;BME280;3073;42.660;23.316;2022-07-21T10:39:25;94664.16;;;38.18;28.37
6090;BME280;3073;42.660;23.316;2022-07-21T10:41:55;94682.16;;;37.37;28.39
6090;BME280;3073;42.660;23.316;2022-07-21T10:44:45;94661.81;;;36.63;29.84
6090;BME280;3073;42.660;23.316;2022-07-21T10:47:15;94666.09;;;36.20;30.59
6090;BME280;3073;42.660;23.316;2022-07-21T10:49:50;94665.34;;;36.53;30.17
6090;BME280;3073;42.660;23.316;2022-07-21T10:52:58;94666.56;;;38.12;29.47
6090;BME280;3073;42.660;23.316;2022-07-21T10:55:27;94662.38;;;37.88;28.96
6090;BME280;3073;42.660;23.316;2022-07-21T10:58:23;94648.78;;;36.76;28.48
6090;BME280;3073;42.660;23.316;2022-07-21T11:00:51;94647.31;;;37.78;28.29
6090;BME280;3073;42.660;23.316;2022-07-21T11:03:24;94652.06;;;37.13;29.24
6090;BME280;3073;42.660;23.316;2022-07-21T11:06:17;94643.91;;;36.97;29.42
6090;BME280;3073;42.660;23.316;2022-07-21T11:08:48;94636.94;;;38.27;28.40
6090;BME280;3073;42.660;23.316;2022-07-21T11:11:17;94637.34;;;38.25;27.29
6090;BME280;3073;42.660;23.316;2022-07-21T11:14:04;94635.63;;;38.38;27.42
6090;BME280;3073;42.660;23.316;2022-07-21T11:17:04;94632.78;;;39.37;26.56
6090;BME280;3073;42.660;23.316;2022-07-21T11:19:37;94622.19;;;38.22;26.97
6090;BME280;3073;42.660;23.316;2022-07-21T11:22:08;94633.22;;;35.55;29.99
6090;BME280;3073;42.660;23.316;2022-07-21T11:24:37;94632.13;;;35.49;30.38
6090;BME280;3073;42.660;23.316;2022-07-21T11:27:07;94628.16;;;36.49;29.65
6090;BME280;3073;42.660;23.316;2022-07-21T11:29:35;94627.78;;;37.61;29.15
6090;BME280;3073;42.660;23.316;2022-07-21T11:32:03;94631.13;;;38.32;28.17
6090;BME280;3073;42.660;23.316;2022-07-21T11:34:43;94626.69;;;38.25;27.49
6090;BME280;3073;42.660;23.316;2022-07-21T11:37:11;94622.50;;;36.10;29.01
6090;BME280;3073;42.660;23.316;2022-07-21T11:39:39;94615.56;;;35.82;30.45
6090;BME280;3073;42.660;23.316;2022-07-21T11:42:09;94617.34;;;36.94;29.31
6090;BME280;3073;42.660;23.316;2022-07-21T11:44:36;94623.69;;;37.30;29.46
6090;BME280;3073;42.660;23.316;2022-07-21T11:47:04;94621.81;;;37.54;28.53
6090;BME280;3073;42.660;23.316;2022-07-21T11:49:32;94614.06;;;38.29;27.91
6090;BME280;3073;42.660;23.316;2022-07-21T11:52:02;94612.88;;;38.30;27.59
6090;BME280;3073;42.660;23.316;2022-07-21T11:54:32;94614.97;;;38.78;27.11
6090;BME280;3073;42.660;23.316;2022-07-21T11:57:03;94618.63;;;39.04;26.48
6090;BME280;3073;42.660;23.316;2022-07-21T11:59:30;94616.59;;;39.28;26.52
6090;BME280;3073;42.660;23.316;2022-07-21T12:02:00;94614.84;;;38.85;26.42
6090;BME280;3073;42.660;23.316;2022-07-21T12:04:40;94610.13;;;38.34;26.64
6090;BME280;3073;42.660;23.316;2022-07-21T12:07:12;94609.25;;;38.80;27.13
6090;BME280;3073;42.660;23.316;2022-07-21T12:09:40;94610.34;;;39.34;26.29
6090;BME280;3073;42.660;23.316;2022-07-21T12:12:10;94611.44;;;38.26;28.11
6090;BME280;3073;42.660;23.316;2022-07-21T12:14:48;94607.34;;;38.60;27.84
6090;BME280;3073;42.660;23.316;2022-07-21T12:17:17;94607.66;;;38.23;27.60
6090;BME280;3073;42.660;23.316;2022-07-21T12:19:57;94592.88;;;38.78;27.37
6090;BME280;3073;42.660;23.316;2022-07-21T12:22:35;94598.78;;;38.69;27.31
6090;BME280;3073;42.660;23.316;2022-07-21T12:25:03;94596.47;;;37.69;28.32
6090;BME280;3073;42.660;23.316;2022-07-21T12:27:34;94590.59;;;37.04;28.97
6090;BME280;3073;42.660;23.316;2022-07-21T12:30:02;94587.88;;;37.58;28.85
6090;BME280;3073;42.660;23.316;2022-07-21T12:32:43;94588.00;;;36.40;29.29
6090;BME280;3073;42.660;23.316;2022-07-21T12:35:24;94586.50;;;36.96;29.14
6090;BME280;3073;42.660;23.316;2022-07-21T12:38:00;94584.28;;;35.97;29.37
6090;BME280;3073;42.660;23.316;2022-07-21T12:40:28;94577.25;;;35.35;31.19
6090;BME280;3073;42.660;23.316;2022-07-21T12:43:12;94577.72;;;34.50;30.97
6090;BME280;3073;42.660;23.316;2022-07-21T12:45:45;94557.13;;;33.89;31.87
6090;BME280;3073;42.660;23.316;2022-07-21T12:48:13;94560.22;;;33.24;33.18
6090;BME280;3073;42.660;23.316;2022-07-21T12:50:41;94556.78;;;33.09;33.45
6090;BME280;3073;42.660;23.316;2022-07-21T12:53:08;94565.00;;;34.10;33.80
6090;BME280;3073;42.660;23.316;2022-07-21T12:55:35;94556.25;;;35.00;32.54
6090;BME280;3073;42.660;23.316;2022-07-21T12:58:02;94565.50;;;34.78;32.74
6090;BME280;3073;42.660;23.316;2022-07-21T13:00:31;94567.34;;;34.88;32.46
6090;BME280;3073;42.660;23.316;2022-07-21T13:02:59;94564.69;;;35.43;31.90
6090;BME280;3073;42.660;23.316;2022-07-21T13:05:26;94563.75;;;36.35;31.30
6090;BME280;3073;42.660;23.316;2022-07-21T13:07:53;94560.06;;;36.59;30.67
6090;BME280;3073;42.660;23.316;2022-07-21T13:10:21;94558.34;;;36.11;31.52
6090;BME280;3073;42.660;23.316;2022-07-21T13:12:48;94563.16;;;36.54;30.71
6090;BME280;3073;42.660;23.316;2022-07-21T13:15:15;94558.56;;;36.58;30.90